sensor_id;sensor_type;location;lat;lon;timestamp;P1;durP1;ratioP1;P2;durP2;ratioP2
14883;SDS011;7534;50.762;7.000;2023-06-22T00:02:15;5.00;;;4.55;;
14883;SDS011;7534;50.762;7.000;2023-06-22T00:04:41;5.65;;;5.00;;
14883;SDS011;7534;50.762;7.000;2023-06-22T00:07:06;6.03;;;5.40;;
14883;SDS011;7534;50.762;7.000;2023-06-22T00:09:33;5.32;;;4.88;;
14883;SDS011;7534;50.762;7.000;2023-06-22T00:11:59;8.05;;;5.20;;
14883;SDS011;7534;50.762;7.000;2023-06-22T00:14:25;5.85;;;5.00;;
14883;SDS011;7534;50.762;7.000;2023-06-22T00:16:50;6.78;;;5.40;;
14883;SDS011;7534;50.762;7.000;2023-06-22T00:19:20;5.90;;;5.30;;
14883;SDS011;7534;50.762;7.000;2023-06-22T00:21:47;7.68;;;5.40;;
14883;SDS011;7534;50.762;7.000;2023-06-22T00:24:20;5.85;;;5.32;;
14883;SDS011;7534;50.762;7.000;2023-06-22T00:26:50;6.72;;;5.15;;
14883;SDS011;7534;50.762;7.000;2023-06-22T00:29:15;6.15;;;5.55;;
14883;SDS011;7534;50.762;7.000;2023-06-22T00:31:42;5.43;;;4.93;;
14883;SDS011;7534;50.762;7.000;2023-06-22T00:34:08;6.00;;;5.40;;
14883;SDS011;7534;50.762;7.000;2023-06-22T00:36:34;5.85;;;5.28;;
14883;SDS011;7534;50.762;7.000;2023-06-22T00:39:01;6.53;;;5.68;;
14883;SDS011;7534;50.762;7.000;2023-06-22T00:41:26;5.68;;;5.10;;
14883;SDS011;7534;50.762;7.000;2023-06-22T00:43:55;5.88;;;5.38;;
14883;SDS011;7534;50.762;7.000;2023-06-22T00:46:21;6.20;;;5.70;;
14883;SDS011;7534;50.762;7.000;2023-06-22T00:48:48;7.22;;;6.03;;
14883;SDS011;7534;50.762;7.000;2023-06-22T00:51:16;5.97;;;5.40;;
14883;SDS011;7534;50.762;7.000;2023-06-22T00:53:42;6.22;;;5.57;;
14883;SDS011;7534;50.762;7.000;2023-06-22T00:56:08;6.40;;;5.43;;
14883;SDS011;7534;50.762;7.000;2023-06-22T00:58:37;6.18;;;5.57;;
14883;SDS011;7534;50.762;7.000;2023-06-22T01:01:06;6.60;;;6.00;;
14883;SDS011;7534;50.762;7.000;2023-06-22T01:03:32;6.20;;;5.60;;
14883;SDS011;7534;50.762;7.000;2023-06-22T01:05:59;6.15;;;5.55;;
14883;SDS011;7534;50.762;7.000;2023-06-22T01:08:42;6.57;;;5.68;;
14883;SDS011;7534;50.762;7.000;2023-06-22T01:11:36;7.60;;;6.07;;
14883;SDS011;7534;50.762;7.000;2023-06-22T01:14:22;6.32;;;5.60;;
14883;SDS011;7534;50.762;7.000;2023-06-22T01:16:57;6.85;;;5.90;;
14883;SDS011;7534;50.762;7.000;2023-06-22T01:19:33;6.60;;;6.00;;
14883;SDS011;7534;50.762;7.000;2023-06-22T01:22:00;6.88;;;6.13;;
14883;SDS011;7534;50.762;7.000;2023-06-22T01:30:10;6.68;;;5.97;;
14883;SDS011;7534;50.762;7.000;2023-06-22T01:32:39;6.57;;;6.00;;
14883;SDS011;7534;50.762;7.000;2023-06-22T01:35:07;6.97;;;5.97;;
14883;SDS011;7534;50.762;7.000;2023-06-22T01:37:35;6.93;;;6.22;;
14883;SDS011;7534;50.762;7.000;2023-06-22T01:40:03;6.30;;;5.80;;
14883;SDS011;7534;50.762;7.000;2023-06-22T01:42:33;6.80;;;6.20;;
14883;SDS011;7534;50.762;7.000;2023-06-22T01:45:01;7.15;;;6.55;;
14883;SDS011;7534;50.762;7.000;2023-06-22T01:47:28;6.93;;;6.25;;
14883;SDS011;7534;50.762;7.000;2023-06-22T01:49:53;8.95;;;6.55;;
14883;SDS011;7534;50.762;7.000;2023-06-22T01:52:20;7.05;;;6.40;;
14883;SDS011;7534;50.762;7.000;2023-06-22T01:54:46;7.75;;;6.60;;
14883;SDS011;7534;50.762;7.000;2023-06-22T01:57:13;7.63;;;6.82;;
14883;SDS011;7534;50.762;7.000;2023-06-22T01:59:48;7.43;;;6.75;;
14883;SDS011;7534;50.762;7.000;2023-06-22T02:02:42;6.97;;;6.32;;
14883;SDS011;7534;50.762;7.000;2023-06-22T02:05:22;7.70;;;6.90;;
14883;SDS011;7534;50.762;7.000;2023-06-22T02:07:59;7.75;;;7.03;;
14883;SDS011;7534;50.762;7.000;2023-06-22T02:10:41;7.40;;;6.80;;
14883;SDS011;7534;50.762;7.000;2023-06-22T02:13:09;8.27;;;7.45;;
14883;SDS011;7534;50.762;7.000;2023-06-22T02:15:38;8.02;;;7.32;;
14883;SDS011;7534;50.762;7.000;2023-06-22T02:18:04;8.13;;;7.30;;
14883;SDS011;7534;50.762;7.000;2023-06-22T02:20:30;7.88;;;7.18;;
14883;SDS011;7534;50.762;7.000;2023-06-22T02:22:56;7.50;;;6.90;;
14883;SDS011;7534;50.762;7.000;2023-06-22T02:25:21;8.15;;;7.45;;
14883;SDS011;7534;50.762;7.000;2023-06-22T02:27:47;8.05;;;7.35;;
14883;SDS011;7534;50.762;7.000;2023-06-22T02:30:13;7.88;;;7.22;;
14883;SDS011;7534;50.762;7.000;2023-06-22T02:32:40;8.20;;;7.43;;
14883;SDS011;7534;50.762;7.000;2023-06-22T02:35:07;8.05;;;7.35;;
14883;SDS011;7534;50.762;7.000;2023-06-22T02:37:35;8.07;;;7.40;;
14883;SDS011;7534;50.762;7.000;2023-06-22T02:40:06;8.13;;;7.32;;
14883;SDS011;7534;50.762;7.000;2023-06-22T02:42:37;8.30;;;7.55;;
14883;SDS011;7534;50.762;7.000;2023-06-22T02:45:04;8.38;;;7.60;;
14883;SDS011;7534;50.762;7.000;2023-06-22T02:47:30;8.48;;;7.68;;
14883;SDS011;7534;50.762;7.000;2023-06-22T02:49:56;8.32;;;7.63;;
14883;SDS011;7534;50.762;7.000;2023-06-22T02:52:22;9.02;;;8.23;;
14883;SDS011;7534;50.762;7.000;2023-06-22T02:54:48;9.52;;;8.63;;
14883;SDS011;7534;50.762;7.000;2023-06-22T02:57:14;9.25;;;8.45;;
14883;SDS011;7534;50.762;7.000;2023-06-22T02:59:42;9.45;;;7.90;;
14883;SDS011;7534;50.762;7.000;2023-06-22T03:02:08;9.18;;;8.38;;
14883;SDS011;7534;50.762;7.000;2023-06-22T03:04:37;8.55;;;7.75;;
14883;SDS011;7534;50.762;7.000;2023-06-22T03:07:02;9.55;;;8.65;;
14883;SDS011;7534;50.762;7.000;2023-06-22T03:09:28;10.10;;;8.73;;
14883;SDS011;7534;50.762;7.000;2023-06-22T03:11:54;9.15;;;8.35;;
14883;SDS011;7534;50.762;7.000;2023-06-22T03:14:20;8.90;;;7.95;;
14883;SDS011;7534;50.762;7.000;2023-06-22T03:16:46;8.93;;;7.90;;
14883;SDS011;7534;50.762;7.000;2023-06-22T03:19:12;9.90;;;7.93;;
14883;SDS011;7534;50.762;7.000;2023-06-22T03:21:38;9.15;;;8.27;;
14883;SDS011;7534;50.762;7.000;2023-06-22T03:24:05;8.77;;;7.97;;
14883;SDS011;7534;50.762;7.000;2023-06-22T03:26:32;9.02;;;8.13;;
14883;SDS011;7534;50.762;7.000;2023-06-22T03:29:00;9.32;;;8.32;;
14883;SDS011;7534;50.762;7.000;2023-06-22T03:31:26;11.25;;;8.32;;
14883;SDS011;7534;50.762;7.000;2023-06-22T03:33:52;8.95;;;7.35;;
14883;SDS011;7534;50.762;7.000;2023-06-22T03:36:18;9.48;;;7.55;;
14883;SDS011;7534;50.762;7.000;2023-06-22T03:38:45;11.05;;;8.25;;
14883;SDS011;7534;50.762;7.000;2023-06-22T03:41:14;8.13;;;7.32;;
14883;SDS011;7534;50.762;7.000;2023-06-22T03:43:40;10.45;;;7.72;;
14883;SDS011;7534;50.762;7.000;2023-06-22T03:46:06;9.73;;;8.13;;
14883;SDS011;7534;50.762;7.000;2023-06-22T03:48:32;8.75;;;7.95;;
14883;SDS011;7534;50.762;7.000;2023-06-22T03:50:59;8.30;;;7.60;;
14883;SDS011;7534;50.762;7.000;2023-06-22T03:53:26;12.32;;;8.88;;
14883;SDS011;7534;50.762;7.000;2023-06-22T03:55:52;12.07;;;8.82;;
14883;SDS011;7534;50.762;7.000;2023-06-22T03:58:19;9.52;;;8.73;;
14883;SDS011;7534;50.762;7.000;2023-06-22T04:00:45;10.15;;;9.23;;
14883;SDS011;7534;50.762;7.000;2023-06-22T04:03:16;9.77;;;8.77;;
14883;SDS011;7534;50.762;7.000;2023-06-22T04:05:45;9.60;;;8.75;;
14883;SDS011;7534;50.762;7.000;2023-06-22T04:08:12;8.68;;;7.80;;
14883;SDS011;7534;50.762;7.000;2023-06-22T04:10:38;10.98;;;8.77;;
14883;SDS011;7534;50.762;7.000;2023-06-22T04:13:04;10.55;;;9.20;;
14883;SDS011;7534;50.762;7.000;2023-06-22T04:15:30;9.63;;;8.73;;
14883;SDS011;7534;50.762;7.000;2023-06-22T04:17:55;9.77;;;8.77;;
14883;SDS011;7534;50.762;7.000;2023-06-22T04:20:22;9.13;;;8.10;;
14883;SDS011;7534;50.762;7.000;2023-06-22T04:22:51;9.43;;;8.07;;
14883;SDS011;7534;50.762;7.000;2023-06-22T04:25:19;9.80;;;7.78;;
14883;SDS011;7534;50.762;7.000;2023-06-22T04:27:46;9.02;;;8.13;;
14883;SDS011;7534;50.762;7.000;2023-06-22T04:30:12;12.20;;;8.15;;
14883;SDS011;7534;50.762;7.000;2023-06-22T04:35:30;9.25;;;8.25;;
14883;SDS011;7534;50.762;7.000;2023-06-22T04:37:59;10.23;;;8.70;;
14883;SDS011;7534;50.762;7.000;2023-06-22T04:40:25;9.40;;;8.07;;
14883;SDS011;7534;50.762;7.000;2023-06-22T04:42:50;9.13;;;8.32;;
14883;SDS011;7534;50.762;7.000;2023-06-22T04:45:19;11.50;;;8.80;;
14883;SDS011;7534;50.762;7.000;2023-06-22T04:47:46;11.63;;;9.55;;
14883;SDS011;7534;50.762;7.000;2023-06-22T04:50:12;10.65;;;9.55;;
14883;SDS011;7534;50.762;7.000;2023-06-22T04:52:38;11.13;;;9.48;;
14883;SDS011;7534;50.762;7.000;2023-06-22T04:55:04;10.23;;;9.23;;
14883;SDS011;7534;50.762;7.000;2023-06-22T04:57:30;10.52;;;9.30;;
14883;SDS011;7534;50.762;7.000;2023-06-22T04:59:59;10.18;;;9.18;;
14883;SDS011;7534;50.762;7.000;2023-06-22T05:02:52;10.60;;;9.60;;
14883;SDS011;7534;50.762;7.000;2023-06-22T05:05:18;10.20;;;8.88;;
14883;SDS011;7534;50.762;7.000;2023-06-22T05:07:44;10.07;;;9.15;;
14883;SDS011;7534;50.762;7.000;2023-06-22T05:10:14;10.20;;;8.63;;
14883;SDS011;7534;50.762;7.000;2023-06-22T05:12:40;9.70;;;8.57;;
14883;SDS011;7534;50.762;7.000;2023-06-22T05:15:07;9.38;;;8.35;;
14883;SDS011;7534;50.762;7.000;2023-06-22T05:17:34;10.15;;;8.68;;
14883;SDS011;7534;50.762;7.000;2023-06-22T05:20:01;9.27;;;8.48;;
14883;SDS011;7534;50.762;7.000;2023-06-22T05:22:31;8.85;;;7.95;;
14883;SDS011;7534;50.762;7.000;2023-06-22T05:24:57;9.63;;;8.70;;
14883;SDS011;7534;50.762;7.000;2023-06-22T05:27:23;9.98;;;8.73;;
14883;SDS011;7534;50.762;7.000;2023-06-22T05:29:48;9.13;;;8.20;;
14883;SDS011;7534;50.762;7.000;2023-06-22T05:32:14;8.70;;;7.90;;
14883;SDS011;7534;50.762;7.000;2023-06-22T05:34:40;8.25;;;7.53;;
14883;SDS011;7534;50.762;7.000;2023-06-22T05:37:06;8.52;;;7.82;;
14883;SDS011;7534;50.762;7.000;2023-06-22T05:39:34;8.48;;;7.70;;
14883;SDS011;7534;50.762;7.000;2023-06-22T05:42:02;9.05;;;8.15;;
14883;SDS011;7534;50.762;7.000;2023-06-22T05:44:30;8.70;;;7.88;;
14883;SDS011;7534;50.762;7.000;2023-06-22T05:46:56;11.20;;;8.45;;
14883;SDS011;7534;50.762;7.000;2023-06-22T05:49:22;8.70;;;8.00;;
14883;SDS011;7534;50.762;7.000;2023-06-22T05:51:49;10.05;;;8.32;;
14883;SDS011;7534;50.762;7.000;2023-06-22T05:54:15;9.35;;;8.45;;
14883;SDS011;7534;50.762;7.000;2023-06-22T05:56:42;10.65;;;9.40;;
14883;SDS011;7534;50.762;7.000;2023-06-22T05:59:08;9.88;;;8.38;;
14883;SDS011;7534;50.762;7.000;2023-06-22T06:01:34;10.13;;;9.18;;
14883;SDS011;7534;50.762;7.000;2023-06-22T06:04:00;10.60;;;8.68;;
14883;SDS011;7534;50.762;7.000;2023-06-22T06:06:33;10.35;;;9.25;;
14883;SDS011;7534;50.762;7.000;2023-06-22T06:08:59;11.02;;;9.93;;
14883;SDS011;7534;50.762;7.000;2023-06-22T06:11:26;10.32;;;9.25;;
14883;SDS011;7534;50.762;7.000;2023-06-22T06:13:51;9.98;;;9.05;;
14883;SDS011;7534;50.762;7.000;2023-06-22T06:16:17;10.20;;;9.30;;
14883;SDS011;7534;50.762;7.000;2023-06-22T06:18:43;11.63;;;10.53;;
14883;SDS011;7534;50.762;7.000;2023-06-22T06:21:09;12.00;;;10.90;;
14883;SDS011;7534;50.762;7.000;2023-06-22T06:23:34;11.88;;;10.75;;
14883;SDS011;7534;50.762;7.000;2023-06-22T06:26:00;11.57;;;10.45;;
14883;SDS011;7534;50.762;7.000;2023-06-22T06:28:26;11.10;;;10.02;;
14883;SDS011;7534;50.762;7.000;2023-06-22T06:30:52;11.77;;;10.45;;
14883;SDS011;7534;50.762;7.000;2023-06-22T06:33:18;12.88;;;11.05;;
14883;SDS011;7534;50.762;7.000;2023-06-22T06:35:45;13.23;;;11.93;;
14883;SDS011;7534;50.762;7.000;2023-06-22T06:38:11;12.07;;;10.98;;
14883;SDS011;7534;50.762;7.000;2023-06-22T06:40:37;12.45;;;11.15;;
14883;SDS011;7534;50.762;7.000;2023-06-22T06:43:03;12.50;;;11.30;;
14883;SDS011;7534;50.762;7.000;2023-06-22T06:45:29;13.27;;;11.85;;
14883;SDS011;7534;50.762;7.000;2023-06-22T06:47:56;12.05;;;10.85;;
14883;SDS011;7534;50.762;7.000;2023-06-22T06:50:22;13.73;;;11.32;;
14883;SDS011;7534;50.762;7.000;2023-06-22T06:52:47;13.05;;;11.25;;
14883;SDS011;7534;50.762;7.000;2023-06-22T06:55:15;12.10;;;10.88;;
14883;SDS011;7534;50.762;7.000;2023-06-22T06:57:41;10.90;;;9.85;;
14883;SDS011;7534;50.762;7.000;2023-06-22T07:00:10;11.30;;;10.23;;
14883;SDS011;7534;50.762;7.000;2023-06-22T07:02:43;11.27;;;10.07;;
14883;SDS011;7534;50.762;7.000;2023-06-22T07:05:10;11.40;;;10.32;;
14883;SDS011;7534;50.762;7.000;2023-06-22T07:07:38;11.45;;;10.35;;
14883;SDS011;7534;50.762;7.000;2023-06-22T07:10:04;11.27;;;10.18;;
14883;SDS011;7534;50.762;7.000;2023-06-22T07:12:31;11.82;;;10.63;;
14883;SDS011;7534;50.762;7.000;2023-06-22T07:15:03;11.65;;;10.52;;
14883;SDS011;7534;50.762;7.000;2023-06-22T07:17:34;11.45;;;10.35;;
14883;SDS011;7534;50.762;7.000;2023-06-22T07:20:01;11.30;;;10.40;;
14883;SDS011;7534;50.762;7.000;2023-06-22T07:22:33;11.50;;;10.40;;
14883;SDS011;7534;50.762;7.000;2023-06-22T07:24:59;12.40;;;11.25;;
14883;SDS011;7534;50.762;7.000;2023-06-22T07:27:24;11.90;;;10.85;;
14883;SDS011;7534;50.762;7.000;2023-06-22T07:29:50;12.10;;;11.10;;
14883;SDS011;7534;50.762;7.000;2023-06-22T07:32:17;12.07;;;10.95;;
14883;SDS011;7534;50.762;7.000;2023-06-22T07:34:43;10.90;;;9.98;;
14883;SDS011;7534;50.762;7.000;2023-06-22T07:37:09;12.98;;;11.52;;
14883;SDS011;7534;50.762;7.000;2023-06-22T07:39:34;9.80;;;9.00;;
14883;SDS011;7534;50.762;7.000;2023-06-22T07:42:00;9.77;;;8.98;;
14883;SDS011;7534;50.762;7.000;2023-06-22T07:44:26;9.15;;;8.40;;
14883;SDS011;7534;50.762;7.000;2023-06-22T07:46:51;10.48;;;9.57;;
14883;SDS011;7534;50.762;7.000;2023-06-22T07:49:18;9.80;;;9.00;;
14883;SDS011;7534;50.762;7.000;2023-06-22T07:51:44;9.23;;;8.43;;
14883;SDS011;7534;50.762;7.000;2023-06-22T07:54:09;9.27;;;8.57;;
14883;SDS011;7534;50.762;7.000;2023-06-22T07:56:36;8.02;;;7.43;;
14883;SDS011;7534;50.762;7.000;2023-06-22T07:59:03;8.93;;;8.07;;
14883;SDS011;7534;50.762;7.000;2023-06-22T08:01:29;8.43;;;7.82;;
14883;SDS011;7534;50.762;7.000;2023-06-22T08:03:55;8.32;;;7.72;;
14883;SDS011;7534;50.762;7.000;2023-06-22T08:06:20;8.35;;;7.63;;
14883;SDS011;7534;50.762;7.000;2023-06-22T08:08:46;8.68;;;8.00;;
14883;SDS011;7534;50.762;7.000;2023-06-22T08:11:18;8.50;;;7.80;;
14883;SDS011;7534;50.762;7.000;2023-06-22T08:13:43;7.80;;;7.15;;
14883;SDS011;7534;50.762;7.000;2023-06-22T08:16:09;9.50;;;8.70;;
14883;SDS011;7534;50.762;7.000;2023-06-22T08:18:35;9.05;;;8.35;;
14883;SDS011;7534;50.762;7.000;2023-06-22T08:21:01;9.70;;;8.87;;
14883;SDS011;7534;50.762;7.000;2023-06-22T08:23:27;9.25;;;8.45;;
14883;SDS011;7534;50.762;7.000;2023-06-22T08:25:52;9.75;;;8.85;;
14883;SDS011;7534;50.762;7.000;2023-06-22T08:28:18;8.30;;;7.57;;
14883;SDS011;7534;50.762;7.000;2023-06-22T08:30:44;10.18;;;9.35;;
14883;SDS011;7534;50.762;7.000;2023-06-22T08:33:09;10.02;;;9.07;;
14883;SDS011;7534;50.762;7.000;2023-06-22T08:35:35;9.48;;;8.68;;
14883;SDS011;7534;50.762;7.000;2023-06-22T08:38:01;9.40;;;8.68;;
14883;SDS011;7534;50.762;7.000;2023-06-22T08:40:27;10.52;;;9.73;;
14883;SDS011;7534;50.762;7.000;2023-06-22T08:42:54;9.70;;;9.00;;
14883;SDS011;7534;50.762;7.000;2023-06-22T08:45:20;10.05;;;9.25;;
14883;SDS011;7534;50.762;7.000;2023-06-22T08:47:45;10.65;;;8.65;;
14883;SDS011;7534;50.762;7.000;2023-06-22T08:50:11;10.93;;;9.83;;
14883;SDS011;7534;50.762;7.000;2023-06-22T08:52:38;9.98;;;9.18;;
14883;SDS011;7534;50.762;7.000;2023-06-22T08:55:08;9.73;;;9.02;;
14883;SDS011;7534;50.762;7.000;2023-06-22T08:57:36;10.10;;;9.30;;
14883;SDS011;7534;50.762;7.000;2023-06-22T09:00:05;9.60;;;8.82;;
14883;SDS011;7534;50.762;7.000;2023-06-22T09:02:43;9.68;;;8.90;;
14883;SDS011;7534;50.762;7.000;2023-06-22T09:05:09;9.68;;;8.85;;
14883;SDS011;7534;50.762;7.000;2023-06-22T09:07:35;9.77;;;8.98;;
14883;SDS011;7534;50.762;7.000;2023-06-22T09:10:01;9.27;;;8.43;;
14883;SDS011;7534;50.762;7.000;2023-06-22T09:12:29;9.50;;;8.70;;
14883;SDS011;7534;50.762;7.000;2023-06-22T09:14:57;10.27;;;9.27;;
14883;SDS011;7534;50.762;7.000;2023-06-22T09:17:28;9.80;;;8.90;;
14883;SDS011;7534;50.762;7.000;2023-06-22T09:19:54;9.88;;;9.07;;
14883;SDS011;7534;50.762;7.000;2023-06-22T09:22:20;10.52;;;8.98;;
14883;SDS011;7534;50.762;7.000;2023-06-22T09:24:46;9.27;;;8.52;;
14883;SDS011;7534;50.762;7.000;2023-06-22T09:27:11;10.05;;;9.10;;
14883;SDS011;7534;50.762;7.000;2023-06-22T09:29:37;9.48;;;8.68;;
14883;SDS011;7534;50.762;7.000;2023-06-22T09:32:03;9.48;;;8.57;;
14883;SDS011;7534;50.762;7.000;2023-06-22T09:34:29;9.50;;;8.80;;
14883;SDS011;7534;50.762;7.000;2023-06-22T09:36:56;9.55;;;8.80;;
14883;SDS011;7534;50.762;7.000;2023-06-22T09:39:22;9.48;;;8.55;;
14883;SDS011;7534;50.762;7.000;2023-06-22T09:41:48;8.93;;;8.23;;
14883;SDS011;7534;50.762;7.000;2023-06-22T09:44:13;9.05;;;8.35;;
14883;SDS011;7534;50.762;7.000;2023-06-22T09:46:39;9.73;;;8.88;;
14883;SDS011;7534;50.762;7.000;2023-06-22T09:49:05;9.15;;;8.45;;
14883;SDS011;7534;50.762;7.000;2023-06-22T09:51:30;9.52;;;8.63;;
14883;SDS011;7534;50.762;7.000;2023-06-22T09:53:56;8.65;;;7.85;;
14883;SDS011;7534;50.762;7.000;2023-06-22T09:56:23;9.73;;;8.82;;
14883;SDS011;7534;50.762;7.000;2023-06-22T09:58:48;9.15;;;8.43;;
14883;SDS011;7534;50.762;7.000;2023-06-22T10:01:17;10.20;;;9.30;;
14883;SDS011;7534;50.762;7.000;2023-06-22T10:03:43;9.52;;;8.73;;
14883;SDS011;7534;50.762;7.000;2023-06-22T10:06:09;9.60;;;8.80;;
14883;SDS011;7534;50.762;7.000;2023-06-22T10:08:35;10.05;;;9.20;;
14883;SDS011;7534;50.762;7.000;2023-06-22T10:11:01;9.93;;;8.93;;
14883;SDS011;7534;50.762;7.000;2023-06-22T10:13:28;10.55;;;9.65;;
14883;SDS011;7534;50.762;7.000;2023-06-22T10:15:54;11.27;;;10.20;;
14883;SDS011;7534;50.762;7.000;2023-06-22T10:18:20;11.93;;;10.80;;
14883;SDS011;7534;50.762;7.000;2023-06-22T10:20:49;11.15;;;10.07;;
14883;SDS011;7534;50.762;7.000;2023-06-22T10:23:16;11.80;;;10.80;;
14883;SDS011;7534;50.762;7.000;2023-06-22T10:25:46;11.68;;;10.52;;
14883;SDS011;7534;50.762;7.000;2023-06-22T10:28:12;11.60;;;10.50;;
14883;SDS011;7534;50.762;7.000;2023-06-22T10:30:41;12.25;;;11.15;;
14883;SDS011;7534;50.762;7.000;2023-06-22T10:33:08;11.80;;;10.80;;
14883;SDS011;7534;50.762;7.000;2023-06-22T10:35:35;13.27;;;12.07;;
14883;SDS011;7534;50.762;7.000;2023-06-22T10:38:05;13.43;;;12.32;;
14883;SDS011;7534;50.762;7.000;2023-06-22T10:40:31;13.55;;;12.55;;
14883;SDS011;7534;50.762;7.000;2023-06-22T10:42:57;14.63;;;13.30;;
14883;SDS011;7534;50.762;7.000;2023-06-22T10:45:22;15.85;;;14.27;;
14883;SDS011;7534;50.762;7.000;2023-06-22T10:47:48;16.60;;;15.05;;
14883;SDS011;7534;50.762;7.000;2023-06-22T10:50:15;17.63;;;15.82;;
14883;SDS011;7534;50.762;7.000;2023-06-22T10:52:40;18.83;;;17.08;;
14883;SDS011;7534;50.762;7.000;2023-06-22T10:55:07;34.25;;;22.35;;
14883;SDS011;7534;50.762;7.000;2023-06-22T10:57:34;43.10;;;23.02;;
14883;SDS011;7534;50.762;7.000;2023-06-22T11:00:01;24.05;;;19.90;;
14883;SDS011;7534;50.762;7.000;2023-06-22T11:02:30;28.73;;;26.00;;
14883;SDS011;7534;50.762;7.000;2023-06-22T11:04:57;25.90;;;23.48;;
14883;SDS011;7534;50.762;7.000;2023-06-22T11:07:25;24.52;;;22.23;;
14883;SDS011;7534;50.762;7.000;2023-06-22T11:09:53;23.63;;;21.52;;
14883;SDS011;7534;50.762;7.000;2023-06-22T11:12:20;24.08;;;21.85;;
14883;SDS011;7534;50.762;7.000;2023-06-22T11:14:45;22.60;;;20.50;;
14883;SDS011;7534;50.762;7.000;2023-06-22T11:17:13;23.00;;;20.85;;
14883;SDS011;7534;50.762;7.000;2023-06-22T11:19:39;25.85;;;23.48;;
14883;SDS011;7534;50.762;7.000;2023-06-22T11:22:05;23.65;;;21.45;;
14883;SDS011;7534;50.762;7.000;2023-06-22T11:24:31;17.60;;;16.00;;
14883;SDS011;7534;50.762;7.000;2023-06-22T11:26:59;15.18;;;13.88;;
14883;SDS011;7534;50.762;7.000;2023-06-22T11:29:25;16.73;;;14.13;;
14883;SDS011;7534;50.762;7.000;2023-06-22T11:31:51;14.45;;;13.25;;
14883;SDS011;7534;50.762;7.000;2023-06-22T11:34:17;14.45;;;13.07;;
14883;SDS011;7534;50.762;7.000;2023-06-22T11:36:44;16.90;;;15.50;;
14883;SDS011;7534;50.762;7.000;2023-06-22T11:39:10;15.45;;;14.05;;
14883;SDS011;7534;50.762;7.000;2023-06-22T11:41:37;55.63;;;17.20;;
14883;SDS011;7534;50.762;7.000;2023-06-22T11:44:03;18.25;;;16.40;;
14883;SDS011;7534;50.762;7.000;2023-06-22T11:46:29;18.50;;;16.85;;
14883;SDS011;7534;50.762;7.000;2023-06-22T11:48:56;18.20;;;16.55;;
14883;SDS011;7534;50.762;7.000;2023-06-22T11:51:22;17.63;;;16.02;;
14883;SDS011;7534;50.762;7.000;2023-06-22T11:53:49;17.63;;;15.98;;
14883;SDS011;7534;50.762;7.000;2023-06-22T11:56:16;18.48;;;16.80;;
14883;SDS011;7534;50.762;7.000;2023-06-22T11:58:41;18.02;;;16.42;;
14883;SDS011;7534;50.762;7.000;2023-06-22T12:01:07;17.48;;;15.98;;
14883;SDS011;7534;50.762;7.000;2023-06-22T12:03:33;16.98;;;15.40;;
14883;SDS011;7534;50.762;7.000;2023-06-22T12:05:59;16.35;;;14.95;;
14883;SDS011;7534;50.762;7.000;2023-06-22T12:08:25;17.23;;;15.60;;
14883;SDS011;7534;50.762;7.000;2023-06-22T12:10:50;16.88;;;15.38;;
14883;SDS011;7534;50.762;7.000;2023-06-22T12:13:23;16.85;;;15.35;;
14883;SDS011;7534;50.762;7.000;2023-06-22T12:15:49;18.20;;;16.40;;
14883;SDS011;7534;50.762;7.000;2023-06-22T12:18:17;17.65;;;16.25;;
14883;SDS011;7534;50.762;7.000;2023-06-22T12:20:45;18.10;;;16.45;;
14883;SDS011;7534;50.762;7.000;2023-06-22T12:23:12;17.25;;;15.85;;
14883;SDS011;7534;50.762;7.000;2023-06-22T12:25:40;18.00;;;16.27;;
14883;SDS011;7534;50.762;7.000;2023-06-22T12:28:06;18.17;;;16.77;;
14883;SDS011;7534;50.762;7.000;2023-06-22T12:30:34;17.55;;;16.05;;
14883;SDS011;7534;50.762;7.000;2023-06-22T12:33:00;16.17;;;14.88;;
14883;SDS011;7534;50.762;7.000;2023-06-22T12:35:26;15.07;;;13.77;;
14883;SDS011;7534;50.762;7.000;2023-06-22T12:37:51;15.20;;;13.90;;
14883;SDS011;7534;50.762;7.000;2023-06-22T12:40:18;15.18;;;13.80;;
14883;SDS011;7534;50.762;7.000;2023-06-22T12:42:44;14.43;;;13.30;;
14883;SDS011;7534;50.762;7.000;2023-06-22T12:45:10;12.88;;;11.75;;
14883;SDS011;7534;50.762;7.000;2023-06-22T12:47:36;12.73;;;11.45;;
14883;SDS011;7534;50.762;7.000;2023-06-22T12:50:02;10.88;;;9.98;;
14883;SDS011;7534;50.762;7.000;2023-06-22T12:52:29;11.65;;;10.75;;
14883;SDS011;7534;50.762;7.000;2023-06-22T12:54:58;9.93;;;9.13;;
14883;SDS011;7534;50.762;7.000;2023-06-22T12:57:24;9.27;;;8.43;;
14883;SDS011;7534;50.762;7.000;2023-06-22T12:59:50;9.25;;;8.45;;
14883;SDS011;7534;50.762;7.000;2023-06-22T13:02:16;8.43;;;7.60;;
14883;SDS011;7534;50.762;7.000;2023-06-22T13:04:42;8.10;;;7.50;;
14883;SDS011;7534;50.762;7.000;2023-06-22T13:07:08;8.25;;;7.53;;
14883;SDS011;7534;50.762;7.000;2023-06-22T13:09:35;7.85;;;7.25;;
14883;SDS011;7534;50.762;7.000;2023-06-22T13:12:02;7.90;;;7.30;;
14883;SDS011;7534;50.762;7.000;2023-06-22T13:14:27;7.70;;;7.20;;
14883;SDS011;7534;50.762;7.000;2023-06-22T13:16:53;7.75;;;7.10;;
14883;SDS011;7534;50.762;7.000;2023-06-22T13:19:19;7.97;;;7.28;;
14883;SDS011;7534;50.762;7.000;2023-06-22T13:21:45;7.50;;;7.00;;
14883;SDS011;7534;50.762;7.000;2023-06-22T13:24:10;7.88;;;7.28;;
14883;SDS011;7534;50.762;7.000;2023-06-22T13:26:36;7.82;;;7.22;;
14883;SDS011;7534;50.762;7.000;2023-06-22T13:29:02;8.80;;;8.02;;
14883;SDS011;7534;50.762;7.000;2023-06-22T13:31:27;7.28;;;6.68;;
14883;SDS011;7534;50.762;7.000;2023-06-22T13:33:53;7.53;;;6.88;;
14883;SDS011;7534;50.762;7.000;2023-06-22T13:36:19;8.20;;;7.50;;
14883;SDS011;7534;50.762;7.000;2023-06-22T13:38:44;6.30;;;5.75;;
14883;SDS011;7534;50.762;7.000;2023-06-22T13:41:10;6.00;;;5.50;;
14883;SDS011;7534;50.762;7.000;2023-06-22T13:43:36;6.40;;;5.82;;
14883;SDS011;7534;50.762;7.000;2023-06-22T13:46:01;6.63;;;6.13;;
14883;SDS011;7534;50.762;7.000;2023-06-22T13:48:28;7.95;;;7.15;;
14883;SDS011;7534;50.762;7.000;2023-06-22T13:50:54;7.85;;;7.15;;
14883;SDS011;7534;50.762;7.000;2023-06-22T13:53:20;6.97;;;6.38;;
14883;SDS011;7534;50.762;7.000;2023-06-22T13:55:45;7.10;;;6.50;;
14883;SDS011;7534;50.762;7.000;2023-06-22T13:58:12;7.85;;;7.25;;
14883;SDS011;7534;50.762;7.000;2023-06-22T14:00:38;8.43;;;7.72;;
14883;SDS011;7534;50.762;7.000;2023-06-22T14:03:04;8.70;;;8.10;;
14883;SDS011;7534;50.762;7.000;2023-06-22T14:05:30;9.65;;;8.85;;
14883;SDS011;7534;50.762;7.000;2023-06-22T14:07:55;9.50;;;8.70;;
14883;SDS011;7534;50.762;7.000;2023-06-22T14:10:21;10.07;;;9.25;;
14883;SDS011;7534;50.762;7.000;2023-06-22T14:12:47;10.55;;;9.75;;
14883;SDS011;7534;50.762;7.000;2023-06-22T14:15:12;11.20;;;10.23;;
14883;SDS011;7534;50.762;7.000;2023-06-22T14:17:38;10.48;;;9.68;;
14883;SDS011;7534;50.762;7.000;2023-06-22T14:20:04;10.88;;;9.88;;
14883;SDS011;7534;50.762;7.000;2023-06-22T14:22:32;10.18;;;9.38;;
14883;SDS011;7534;50.762;7.000;2023-06-22T14:25:00;10.50;;;9.60;;
14883;SDS011;7534;50.762;7.000;2023-06-22T14:27:26;10.32;;;9.52;;
14883;SDS011;7534;50.762;7.000;2023-06-22T14:29:52;10.73;;;9.85;;
14883;SDS011;7534;50.762;7.000;2023-06-22T14:32:18;10.60;;;9.60;;
14883;SDS011;7534;50.762;7.000;2023-06-22T14:34:44;11.02;;;10.07;;
14883;SDS011;7534;50.762;7.000;2023-06-22T14:37:09;10.60;;;9.60;;
14883;SDS011;7534;50.762;7.000;2023-06-22T14:39:35;10.68;;;9.77;;
14883;SDS011;7534;50.762;7.000;2023-06-22T14:42:01;11.98;;;10.98;;
14883;SDS011;7534;50.762;7.000;2023-06-22T14:44:28;12.48;;;11.43;;
14883;SDS011;7534;50.762;7.000;2023-06-22T14:46:55;13.05;;;11.85;;
14883;SDS011;7534;50.762;7.000;2023-06-22T14:49:21;12.45;;;11.43;;
14883;SDS011;7534;50.762;7.000;2023-06-22T14:51:47;14.60;;;13.35;;
14883;SDS011;7534;50.762;7.000;2023-06-22T14:54:13;20.40;;;15.88;;
14883;SDS011;7534;50.762;7.000;2023-06-22T14:56:38;16.45;;;14.85;;
14883;SDS011;7534;50.762;7.000;2023-06-22T14:59:04;14.57;;;13.38;;